sensor_id;sensor_type;location;lat;lon;timestamp;P1;durP1;ratioP1;P2;durP2;ratioP2
63818;SDS011;49970;54.976;73.248;2023-02-23T00:01:33;13.27;;;7.75;;
63818;SDS011;49970;54.976;73.248;2023-02-23T00:04:12;12.70;;;8.43;;
63818;SDS011;49970;54.976;73.248;2023-02-23T00:06:41;13.18;;;8.35;;
63818;SDS011;49970;54.976;73.248;2023-02-23T00:09:12;10.98;;;8.13;;
63818;SDS011;49970;54.976;73.248;2023-02-23T00:11:53;11.35;;;9.40;;
63818;SDS011;49970;54.976;73.248;2023-02-23T00:16:57;14.77;;;11.00;;
63818;SDS011;49970;54.976;73.248;2023-02-23T00:19:27;13.85;;;10.05;;
63818;SDS011;49970;54.976;73.248;2023-02-23T00:22:00;16.60;;;10.87;;
63818;SDS011;49970;54.976;73.248;2023-02-23T00:24:30;15.18;;;9.80;;
63818;SDS011;49970;54.976;73.248;2023-02-23T00:27:02;12.57;;;9.13;;
63818;SDS011;49970;54.976;73.248;2023-02-23T00:29:38;13.00;;;9.70;;
63818;SDS011;49970;54.976;73.248;2023-02-23T00:32:19;13.00;;;9.00;;
63818;SDS011;49970;54.976;73.248;2023-02-23T00:34:52;10.30;;;7.97;;
63818;SDS011;49970;54.976;73.248;2023-02-23T00:37:23;11.82;;;8.15;;
63818;SDS011;49970;54.976;73.248;2023-02-23T00:39:54;9.27;;;7.90;;
63818;SDS011;49970;54.976;73.248;2023-02-23T00:42:23;16.30;;;8.57;;
63818;SDS011;49970;54.976;73.248;2023-02-23T00:45:06;10.85;;;7.95;;
63818;SDS011;49970;54.976;73.248;2023-02-23T00:47:42;9.55;;;8.23;;
63818;SDS011;49970;54.976;73.248;2023-02-23T00:50:14;15.73;;;9.18;;
63818;SDS011;49970;54.976;73.248;2023-02-23T00:52:43;12.43;;;8.50;;
63818;SDS011;49970;54.976;73.248;2023-02-23T00:55:14;11.52;;;8.82;;
63818;SDS011;49970;54.976;73.248;2023-02-23T00:57:44;16.00;;;8.55;;
63818;SDS011;49970;54.976;73.248;2023-02-23T01:00:20;14.52;;;8.85;;
63818;SDS011;49970;54.976;73.248;2023-02-23T01:02:54;15.25;;;8.95;;
63818;SDS011;49970;54.976;73.248;2023-02-23T01:05:32;13.13;;;9.27;;
63818;SDS011;49970;54.976;73.248;2023-02-23T01:08:01;17.25;;;11.13;;
63818;SDS011;49970;54.976;73.248;2023-02-23T01:10:40;21.27;;;11.80;;
63818;SDS011;49970;54.976;73.248;2023-02-23T01:13:19;15.82;;;9.70;;
63818;SDS011;49970;54.976;73.248;2023-02-23T01:15:49;17.98;;;11.60;;
63818;SDS011;49970;54.976;73.248;2023-02-23T01:18:28;16.80;;;11.32;;
63818;SDS011;49970;54.976;73.248;2023-02-23T01:21:17;19.77;;;11.93;;
63818;SDS011;49970;54.976;73.248;2023-02-23T01:24:03;20.48;;;11.25;;
63818;SDS011;49970;54.976;73.248;2023-02-23T01:26:36;20.77;;;11.90;;
63818;SDS011;49970;54.976;73.248;2023-02-23T01:29:12;25.73;;;11.25;;
63818;SDS011;49970;54.976;73.248;2023-02-23T01:31:46;16.35;;;10.23;;
63818;SDS011;49970;54.976;73.248;2023-02-23T01:34:18;20.17;;;11.57;;
63818;SDS011;49970;54.976;73.248;2023-02-23T01:36:48;17.85;;;11.35;;
63818;SDS011;49970;54.976;73.248;2023-02-23T01:39:18;18.73;;;11.82;;
63818;SDS011;49970;54.976;73.248;2023-02-23T01:41:47;22.08;;;11.57;;
63818;SDS011;49970;54.976;73.248;2023-02-23T01:46:56;19.40;;;10.93;;
63818;SDS011;49970;54.976;73.248;2023-02-23T01:49:28;22.48;;;11.25;;
63818;SDS011;49970;54.976;73.248;2023-02-23T01:54:31;16.23;;;11.30;;
63818;SDS011;49970;54.976;73.248;2023-02-23T01:57:10;19.08;;;11.30;;
63818;SDS011;49970;54.976;73.248;2023-02-23T01:59:42;18.25;;;10.70;;
63818;SDS011;49970;54.976;73.248;2023-02-23T02:02:16;19.35;;;12.52;;
63818;SDS011;49970;54.976;73.248;2023-02-23T02:04:47;33.45;;;19.35;;
63818;SDS011;49970;54.976;73.248;2023-02-23T02:07:22;52.33;;;32.78;;
63818;SDS011;49970;54.976;73.248;2023-02-23T02:09:57;70.55;;;40.67;;
63818;SDS011;49970;54.976;73.248;2023-02-23T02:12:38;31.83;;;17.10;;
63818;SDS011;49970;54.976;73.248;2023-02-23T02:15:07;26.88;;;14.38;;
63818;SDS011;49970;54.976;73.248;2023-02-23T02:18:09;21.33;;;13.55;;
63818;SDS011;49970;54.976;73.248;2023-02-23T02:23:59;30.52;;;13.73;;
63818;SDS011;49970;54.976;73.248;2023-02-23T02:31:57;27.17;;;15.05;;
63818;SDS011;49970;54.976;73.248;2023-02-23T02:40:21;26.02;;;14.70;;
63818;SDS011;49970;54.976;73.248;2023-02-23T02:42:54;24.13;;;14.82;;
63818;SDS011;49970;54.976;73.248;2023-02-23T02:45:40;33.40;;;15.50;;
63818;SDS011;49970;54.976;73.248;2023-02-23T02:48:36;26.15;;;15.90;;
63818;SDS011;49970;54.976;73.248;2023-02-23T02:51:31;24.58;;;15.55;;
63818;SDS011;49970;54.976;73.248;2023-02-23T02:54:12;23.98;;;14.73;;
63818;SDS011;49970;54.976;73.248;2023-02-23T02:56:50;28.40;;;15.10;;
63818;SDS011;49970;54.976;73.248;2023-02-23T02:59:25;30.73;;;15.68;;
63818;SDS011;49970;54.976;73.248;2023-02-23T03:02:13;22.92;;;13.70;;
63818;SDS011;49970;54.976;73.248;2023-02-23T03:05:11;33.80;;;17.70;;
63818;SDS011;49970;54.976;73.248;2023-02-23T03:11:08;26.17;;;14.70;;
63818;SDS011;49970;54.976;73.248;2023-02-23T03:29:24;65.68;;;31.08;;
63818;SDS011;49970;54.976;73.248;2023-02-23T03:32:43;62.50;;;30.77;;
63818;SDS011;49970;54.976;73.248;2023-02-23T03:38:26;66.38;;;31.85;;
63818;SDS011;49970;54.976;73.248;2023-02-23T03:44:03;60.65;;;29.58;;
63818;SDS011;49970;54.976;73.248;2023-02-23T03:47:00;58.47;;;28.58;;
63818;SDS011;49970;54.976;73.248;2023-02-23T03:49:51;44.85;;;25.27;;
63818;SDS011;49970;54.976;73.248;2023-02-23T03:52:49;41.85;;;21.83;;
63818;SDS011;49970;54.976;73.248;2023-02-23T03:55:46;52.03;;;22.88;;
63818;SDS011;49970;54.976;73.248;2023-02-23T03:58:38;42.53;;;21.42;;
63818;SDS011;49970;54.976;73.248;2023-02-23T04:01:33;39.55;;;22.73;;
63818;SDS011;49970;54.976;73.248;2023-02-23T04:04:32;32.45;;;18.98;;
63818;SDS011;49970;54.976;73.248;2023-02-23T04:07:20;34.95;;;19.25;;
63818;SDS011;49970;54.976;73.248;2023-02-23T04:10:16;31.40;;;18.60;;
63818;SDS011;49970;54.976;73.248;2023-02-23T04:13:06;35.00;;;19.95;;
63818;SDS011;49970;54.976;73.248;2023-02-23T04:15:51;38.53;;;20.30;;
63818;SDS011;49970;54.976;73.248;2023-02-23T04:18:35;39.80;;;21.42;;
63818;SDS011;49970;54.976;73.248;2023-02-23T04:21:05;36.17;;;21.42;;
63818;SDS011;49970;54.976;73.248;2023-02-23T04:23:37;36.65;;;19.58;;
63818;SDS011;49970;54.976;73.248;2023-02-23T04:26:11;27.50;;;18.42;;
63818;SDS011;49970;54.976;73.248;2023-02-23T04:28:41;38.58;;;21.33;;
63818;SDS011;49970;54.976;73.248;2023-02-23T04:31:10;38.67;;;19.98;;
63818;SDS011;49970;54.976;73.248;2023-02-23T04:33:41;39.10;;;19.80;;
63818;SDS011;49970;54.976;73.248;2023-02-23T04:36:11;37.72;;;20.73;;
63818;SDS011;49970;54.976;73.248;2023-02-23T04:38:49;32.65;;;20.23;;
63818;SDS011;49970;54.976;73.248;2023-02-23T04:41:19;37.42;;;22.70;;
63818;SDS011;49970;54.976;73.248;2023-02-23T04:43:49;44.13;;;24.70;;
63818;SDS011;49970;54.976;73.248;2023-02-23T04:46:21;42.83;;;24.48;;
63818;SDS011;49970;54.976;73.248;2023-02-23T04:48:52;47.88;;;27.50;;
63818;SDS011;49970;54.976;73.248;2023-02-23T04:51:22;49.70;;;25.70;;
63818;SDS011;49970;54.976;73.248;2023-02-23T04:56:30;45.00;;;23.83;;
63818;SDS011;49970;54.976;73.248;2023-02-23T04:58:59;42.70;;;23.02;;
63818;SDS011;49970;54.976;73.248;2023-02-23T05:01:28;44.90;;;23.45;;
63818;SDS011;49970;54.976;73.248;2023-02-23T05:03:58;42.35;;;23.17;;
63818;SDS011;49970;54.976;73.248;2023-02-23T05:06:33;41.88;;;24.33;;
63818;SDS011;49970;54.976;73.248;2023-02-23T05:09:03;38.30;;;22.08;;
63818;SDS011;49970;54.976;73.248;2023-02-23T05:11:34;36.10;;;21.75;;
63818;SDS011;49970;54.976;73.248;2023-02-23T05:14:07;42.73;;;19.33;;
63818;SDS011;49970;54.976;73.248;2023-02-23T05:16:38;30.45;;;19.15;;
63818;SDS011;49970;54.976;73.248;2023-02-23T05:19:12;26.90;;;18.00;;
63818;SDS011;49970;54.976;73.248;2023-02-23T05:21:51;26.92;;;17.65;;
63818;SDS011;49970;54.976;73.248;2023-02-23T05:24:20;26.25;;;16.73;;
63818;SDS011;49970;54.976;73.248;2023-02-23T05:26:51;28.52;;;18.38;;
63818;SDS011;49970;54.976;73.248;2023-02-23T05:29:21;32.40;;;20.63;;
63818;SDS011;49970;54.976;73.248;2023-02-23T05:31:50;28.83;;;19.30;;
63818;SDS011;49970;54.976;73.248;2023-02-23T05:34:25;30.33;;;20.88;;
63818;SDS011;49970;54.976;73.248;2023-02-23T05:36:53;35.42;;;20.67;;
63818;SDS011;49970;54.976;73.248;2023-02-23T05:39:24;34.50;;;20.65;;
63818;SDS011;49970;54.976;73.248;2023-02-23T05:41:56;34.95;;;20.35;;
63818;SDS011;49970;54.976;73.248;2023-02-23T05:44:26;33.97;;;19.83;;
63818;SDS011;49970;54.976;73.248;2023-02-23T05:46:58;33.43;;;19.43;;
63818;SDS011;49970;54.976;73.248;2023-02-23T05:49:39;34.53;;;20.85;;
63818;SDS011;49970;54.976;73.248;2023-02-23T05:52:07;42.05;;;21.55;;
63818;SDS011;49970;54.976;73.248;2023-02-23T05:54:37;38.95;;;22.92;;
63818;SDS011;49970;54.976;73.248;2023-02-23T05:57:11;34.17;;;19.05;;
63818;SDS011;49970;54.976;73.248;2023-02-23T05:59:50;34.40;;;19.58;;
63818;SDS011;49970;54.976;73.248;2023-02-23T06:02:21;45.13;;;25.88;;
63818;SDS011;49970;54.976;73.248;2023-02-23T06:04:51;32.88;;;19.67;;
63818;SDS011;49970;54.976;73.248;2023-02-23T06:07:21;33.75;;;20.33;;
63818;SDS011;49970;54.976;73.248;2023-02-23T06:09:49;29.77;;;19.33;;
63818;SDS011;49970;54.976;73.248;2023-02-23T06:12:19;22.67;;;14.90;;
63818;SDS011;49970;54.976;73.248;2023-02-23T06:14:49;31.30;;;19.55;;
63818;SDS011;49970;54.976;73.248;2023-02-23T06:17:24;18.13;;;13.75;;
63818;SDS011;49970;54.976;73.248;2023-02-23T06:19:54;19.65;;;14.07;;
63818;SDS011;49970;54.976;73.248;2023-02-23T06:22:26;18.20;;;14.07;;
63818;SDS011;49970;54.976;73.248;2023-02-23T06:24:57;18.00;;;15.43;;
63818;SDS011;49970;54.976;73.248;2023-02-23T06:27:40;20.00;;;14.68;;
63818;SDS011;49970;54.976;73.248;2023-02-23T06:30:11;22.13;;;15.50;;
63818;SDS011;49970;54.976;73.248;2023-02-23T06:34:03;21.30;;;14.20;;
63818;SDS011;49970;54.976;73.248;2023-02-23T06:37:42;23.98;;;14.32;;
63818;SDS011;49970;54.976;73.248;2023-02-23T06:40:14;23.20;;;15.60;;
63818;SDS011;49970;54.976;73.248;2023-02-23T06:42:40;18.38;;;14.23;;
63818;SDS011;49970;54.976;73.248;2023-02-23T06:45:16;21.98;;;15.60;;
63818;SDS011;49970;54.976;73.248;2023-02-23T06:47:48;28.00;;;16.27;;
63818;SDS011;49970;54.976;73.248;2023-02-23T06:50:14;23.10;;;17.00;;
63818;SDS011;49970;54.976;73.248;2023-02-23T06:52:40;22.65;;;16.20;;
63818;SDS011;49970;54.976;73.248;2023-02-23T06:55:07;21.63;;;15.20;;
63818;SDS011;49970;54.976;73.248;2023-02-23T06:57:34;20.05;;;15.60;;
63818;SDS011;49970;54.976;73.248;2023-02-23T07:00:00;18.52;;;14.57;;
63818;SDS011;49970;54.976;73.248;2023-02-23T07:02:26;22.85;;;15.20;;
63818;SDS011;49970;54.976;73.248;2023-02-23T07:04:53;19.42;;;15.82;;
63818;SDS011;49970;54.976;73.248;2023-02-23T07:07:19;21.55;;;16.75;;
63818;SDS011;49970;54.976;73.248;2023-02-23T07:09:45;23.58;;;16.77;;
63818;SDS011;49970;54.976;73.248;2023-02-23T07:12:11;23.75;;;16.15;;
63818;SDS011;49970;54.976;73.248;2023-02-23T07:14:38;20.38;;;14.52;;
63818;SDS011;49970;54.976;73.248;2023-02-23T07:17:04;17.60;;;14.23;;
63818;SDS011;49970;54.976;73.248;2023-02-23T07:19:31;16.50;;;13.75;;
63818;SDS011;49970;54.976;73.248;2023-02-23T07:21:57;17.92;;;11.20;;
63818;SDS011;49970;54.976;73.248;2023-02-23T07:24:23;19.65;;;13.88;;
63818;SDS011;49970;54.976;73.248;2023-02-23T07:26:55;19.63;;;14.57;;
63818;SDS011;49970;54.976;73.248;2023-02-23T07:29:32;19.23;;;14.27;;
63818;SDS011;49970;54.976;73.248;2023-02-23T07:31:58;20.88;;;14.48;;
63818;SDS011;49970;54.976;73.248;2023-02-23T07:34:24;17.95;;;13.88;;
63818;SDS011;49970;54.976;73.248;2023-02-23T07:36:51;16.73;;;12.20;;
63818;SDS011;49970;54.976;73.248;2023-02-23T07:39:17;17.35;;;13.27;;
63818;SDS011;49970;54.976;73.248;2023-02-23T07:41:43;17.63;;;13.85;;
63818;SDS011;49970;54.976;73.248;2023-02-23T07:44:19;14.02;;;11.95;;
63818;SDS011;49970;54.976;73.248;2023-02-23T07:46:45;13.95;;;12.05;;
63818;SDS011;49970;54.976;73.248;2023-02-23T07:49:22;18.23;;;13.88;;
63818;SDS011;49970;54.976;73.248;2023-02-23T07:51:48;18.92;;;14.50;;
63818;SDS011;49970;54.976;73.248;2023-02-23T07:54:19;18.55;;;13.38;;
63818;SDS011;49970;54.976;73.248;2023-02-23T07:56:46;18.02;;;13.15;;
63818;SDS011;49970;54.976;73.248;2023-02-23T07:59:22;22.88;;;16.70;;
63818;SDS011;49970;54.976;73.248;2023-02-23T08:01:59;21.08;;;15.45;;
63818;SDS011;49970;54.976;73.248;2023-02-23T08:04:30;26.17;;;19.35;;
63818;SDS011;49970;54.976;73.248;2023-02-23T08:06:57;24.38;;;16.83;;
63818;SDS011;49970;54.976;73.248;2023-02-23T08:09:23;26.85;;;16.83;;
63818;SDS011;49970;54.976;73.248;2023-02-23T08:11:49;20.45;;;15.55;;
63818;SDS011;49970;54.976;73.248;2023-02-23T08:14:15;29.08;;;15.57;;
63818;SDS011;49970;54.976;73.248;2023-02-23T08:16:48;18.53;;;15.83;;
63818;SDS011;49970;54.976;73.248;2023-02-23T08:19:19;19.05;;;13.23;;
63818;SDS011;49970;54.976;73.248;2023-02-23T08:21:50;16.35;;;14.13;;
63818;SDS011;49970;54.976;73.248;2023-02-23T08:24:17;20.60;;;15.95;;
63818;SDS011;49970;54.976;73.248;2023-02-23T08:26:43;21.80;;;15.45;;
63818;SDS011;49970;54.976;73.248;2023-02-23T08:29:10;24.45;;;16.15;;
63818;SDS011;49970;54.976;73.248;2023-02-23T08:31:47;29.70;;;18.05;;
63818;SDS011;49970;54.976;73.248;2023-02-23T08:34:13;48.03;;;23.52;;
63818;SDS011;49970;54.976;73.248;2023-02-23T08:36:50;35.15;;;20.08;;
63818;SDS011;49970;54.976;73.248;2023-02-23T08:39:17;32.42;;;19.08;;
63818;SDS011;49970;54.976;73.248;2023-02-23T08:41:43;38.63;;;20.45;;
63818;SDS011;49970;54.976;73.248;2023-02-23T08:44:09;40.92;;;22.25;;
63818;SDS011;49970;54.976;73.248;2023-02-23T08:46:36;25.95;;;15.75;;
63818;SDS011;49970;54.976;73.248;2023-02-23T08:49:02;25.17;;;14.70;;
63818;SDS011;49970;54.976;73.248;2023-02-23T08:51:30;19.13;;;13.75;;
63818;SDS011;49970;54.976;73.248;2023-02-23T08:53:59;29.40;;;17.13;;
63818;SDS011;49970;54.976;73.248;2023-02-23T08:56:26;19.48;;;14.55;;
63818;SDS011;49970;54.976;73.248;2023-02-23T08:58:53;22.95;;;16.52;;
63818;SDS011;49970;54.976;73.248;2023-02-23T09:01:19;20.15;;;13.57;;
63818;SDS011;49970;54.976;73.248;2023-02-23T09:03:49;21.23;;;15.38;;
63818;SDS011;49970;54.976;73.248;2023-02-23T09:06:25;25.58;;;14.88;;
63818;SDS011;49970;54.976;73.248;2023-02-23T09:08:52;22.02;;;14.68;;
63818;SDS011;49970;54.976;73.248;2023-02-23T09:11:20;24.23;;;15.88;;
63818;SDS011;49970;54.976;73.248;2023-02-23T09:13:47;21.35;;;15.60;;
63818;SDS011;49970;54.976;73.248;2023-02-23T09:16:14;23.38;;;13.82;;
63818;SDS011;49970;54.976;73.248;2023-02-23T09:18:40;18.05;;;14.20;;
63818;SDS011;49970;54.976;73.248;2023-02-23T09:21:08;29.10;;;14.93;;
63818;SDS011;49970;54.976;73.248;2023-02-23T09:23:55;25.40;;;14.95;;
63818;SDS011;49970;54.976;73.248;2023-02-23T09:26:23;25.80;;;15.85;;
63818;SDS011;49970;54.976;73.248;2023-02-23T09:28:51;24.95;;;15.70;;
63818;SDS011;49970;54.976;73.248;2023-02-23T09:31:22;28.98;;;17.38;;
63818;SDS011;49970;54.976;73.248;2023-02-23T09:33:49;28.33;;;17.23;;
63818;SDS011;49970;54.976;73.248;2023-02-23T09:36:26;29.42;;;18.45;;
63818;SDS011;49970;54.976;73.248;2023-02-23T09:38:54;24.55;;;17.15;;
63818;SDS011;49970;54.976;73.248;2023-02-23T09:46:56;30.85;;;19.90;;
63818;SDS011;49970;54.976;73.248;2023-02-23T09:49:32;28.60;;;18.77;;
63818;SDS011;49970;54.976;73.248;2023-02-23T09:52:02;38.55;;;20.35;;
63818;SDS011;49970;54.976;73.248;2023-02-23T09:54:31;41.13;;;20.85;;
63818;SDS011;49970;54.976;73.248;2023-02-23T09:57:03;31.17;;;21.17;;
63818;SDS011;49970;54.976;73.248;2023-02-23T09:59:38;28.45;;;17.88;;
63818;SDS011;49970;54.976;73.248;2023-02-23T10:02:22;36.90;;;22.40;;
63818;SDS011;49970;54.976;73.248;2023-02-23T10:05:26;40.70;;;25.40;;
63818;SDS011;49970;54.976;73.248;2023-02-23T10:07:59;38.80;;;25.17;;
63818;SDS011;49970;54.976;73.248;2023-02-23T10:13:34;33.25;;;19.60;;
63818;SDS011;49970;54.976;73.248;2023-02-23T10:16:19;43.33;;;20.35;;
63818;SDS011;49970;54.976;73.248;2023-02-23T10:21:39;36.30;;;24.45;;
63818;SDS011;49970;54.976;73.248;2023-02-23T10:24:11;42.97;;;29.05;;
63818;SDS011;49970;54.976;73.248;2023-02-23T10:26:51;42.70;;;22.33;;
63818;SDS011;49970;54.976;73.248;2023-02-23T10:29:44;32.50;;;18.17;;
63818;SDS011;49970;54.976;73.248;2023-02-23T10:32:16;31.83;;;18.15;;
63818;SDS011;49970;54.976;73.248;2023-02-23T10:35:14;31.15;;;19.67;;
63818;SDS011;49970;54.976;73.248;2023-02-23T10:37:52;41.88;;;19.27;;
63818;SDS011;49970;54.976;73.248;2023-02-23T10:40:26;31.80;;;19.38;;
63818;SDS011;49970;54.976;73.248;2023-02-23T10:42:56;38.05;;;20.83;;
63818;SDS011;49970;54.976;73.248;2023-02-23T10:45:33;31.90;;;19.70;;
63818;SDS011;49970;54.976;73.248;2023-02-23T10:48:07;41.25;;;20.05;;
63818;SDS011;49970;54.976;73.248;2023-02-23T10:50:38;26.90;;;17.02;;
63818;SDS011;49970;54.976;73.248;2023-02-23T10:56:33;36.78;;;22.10;;
63818;SDS011;49970;54.976;73.248;2023-02-23T10:58:54;34.58;;;19.33;;
63818;SDS011;49970;54.976;73.248;2023-02-23T11:07:08;39.42;;;21.23;;
63818;SDS011;49970;54.976;73.248;2023-02-23T11:12:16;24.08;;;13.80;;
63818;SDS011;49970;54.976;73.248;2023-02-23T11:15:24;27.90;;;14.15;;
63818;SDS011;49970;54.976;73.248;2023-02-23T11:18:32;24.17;;;15.45;;
63818;SDS011;49970;54.976;73.248;2023-02-23T11:20:47;16.30;;;11.98;;
63818;SDS011;49970;54.976;73.248;2023-02-23T11:23:15;22.40;;;13.45;;
63818;SDS011;49970;54.976;73.248;2023-02-23T11:25:52;22.35;;;14.27;;
63818;SDS011;49970;54.976;73.248;2023-02-23T11:28:24;22.65;;;13.68;;
63818;SDS011;49970;54.976;73.248;2023-02-23T11:30:57;18.70;;;12.75;;
63818;SDS011;49970;54.976;73.248;2023-02-23T11:33:34;25.73;;;13.98;;
63818;SDS011;49970;54.976;73.248;2023-02-23T11:39:34;17.92;;;12.63;;
63818;SDS011;49970;54.976;73.248;2023-02-23T11:41:44;21.42;;;12.82;;
63818;SDS011;49970;54.976;73.248;2023-02-23T11:44:20;21.83;;;12.65;;
63818;SDS011;49970;54.976;73.248;2023-02-23T11:46:48;23.67;;;14.63;;
63818;SDS011;49970;54.976;73.248;2023-02-23T11:49:20;19.40;;;13.15;;
63818;SDS011;49970;54.976;73.248;2023-02-23T11:51:58;29.60;;;15.63;;
63818;SDS011;49970;54.976;73.248;2023-02-23T11:54:32;28.60;;;17.05;;
63818;SDS011;49970;54.976;73.248;2023-02-23T11:57:10;29.15;;;17.17;;
63818;SDS011;49970;54.976;73.248;2023-02-23T11:59:47;31.63;;;18.30;;
63818;SDS011;49970;54.976;73.248;2023-02-23T12:02:27;31.38;;;17.98;;
63818;SDS011;49970;54.976;73.248;2023-02-23T12:05:01;27.90;;;17.17;;
63818;SDS011;49970;54.976;73.248;2023-02-23T12:16:06;31.63;;;19.25;;
63818;SDS011;49970;54.976;73.248;2023-02-23T12:26:34;39.63;;;23.52;;
63818;SDS011;49970;54.976;73.248;2023-02-23T12:31:56;45.47;;;26.42;;
63818;SDS011;49970;54.976;73.248;2023-02-23T12:37:32;26.63;;;18.55;;
63818;SDS011;49970;54.976;73.248;2023-02-23T12:40:20;25.33;;;17.33;;
63818;SDS011;49970;54.976;73.248;2023-02-23T12:43:09;31.38;;;17.35;;
63818;SDS011;49970;54.976;73.248;2023-02-23T12:45:55;25.08;;;16.67;;
63818;SDS011;49970;54.976;73.248;2023-02-23T12:48:51;28.35;;;18.73;;
63818;SDS011;49970;54.976;73.248;2023-02-23T12:51:38;34.17;;;20.70;;
63818;SDS011;49970;54.976;73.248;2023-02-23T12:54:12;32.58;;;20.17;;
63818;SDS011;49970;54.976;73.248;2023-02-23T12:59:45;38.47;;;21.40;;
63818;SDS011;49970;54.976;73.248;2023-02-23T13:02:36;44.42;;;25.13;;
63818;SDS011;49970;54.976;73.248;2023-02-23T13:05:44;39.40;;;24.55;;
63818;SDS011;49970;54.976;73.248;2023-02-23T13:08:21;45.67;;;26.08;;
63818;SDS011;49970;54.976;73.248;2023-02-23T13:11:21;44.55;;;26.00;;
63818;SDS011;49970;54.976;73.248;2023-02-23T13:17:06;46.72;;;27.13;;
63818;SDS011;49970;54.976;73.248;2023-02-23T13:20:00;49.30;;;27.38;;
63818;SDS011;49970;54.976;73.248;2023-02-23T13:28:19;40.78;;;24.13;;
63818;SDS011;49970;54.976;73.248;2023-02-23T13:30:53;42.80;;;24.73;;
63818;SDS011;49970;54.976;73.248;2023-02-23T13:33:23;42.17;;;25.70;;
63818;SDS011;49970;54.976;73.248;2023-02-23T13:36:02;49.80;;;26.98;;
63818;SDS011;49970;54.976;73.248;2023-02-23T13:41:23;37.70;;;23.88;;
63818;SDS011;49970;54.976;73.248;2023-02-23T13:44:06;40.45;;;25.38;;
63818;SDS011;49970;54.976;73.248;2023-02-23T13:47:05;43.00;;;25.77;;
63818;SDS011;49970;54.976;73.248;2023-02-23T13:52:37;33.22;;;22.45;;
63818;SDS011;49970;54.976;73.248;2023-02-23T13:58:10;35.22;;;23.30;;
63818;SDS011;49970;54.976;73.248;2023-02-23T14:00:40;36.83;;;23.75;;
63818;SDS011;49970;54.976;73.248;2023-02-23T14:03:21;41.83;;;23.92;;
63818;SDS011;49970;54.976;73.248;2023-02-23T14:05:53;44.03;;;26.58;;
63818;SDS011;49970;54.976;73.248;2023-02-23T14:08:30;40.10;;;24.30;;
63818;SDS011;49970;54.976;73.248;2023-02-23T14:11:25;44.08;;;25.60;;
63818;SDS011;49970;54.976;73.248;2023-02-23T14:14:19;41.92;;;25.58;;
63818;SDS011;49970;54.976;73.248;2023-02-23T14:22:20;33.92;;;23.63;;
63818;SDS011;49970;54.976;73.248;2023-02-23T14:27:56;38.33;;;24.15;;
63818;SDS011;49970;54.976;73.248;2023-02-23T14:30:27;39.55;;;25.92;;
63818;SDS011;49970;54.976;73.248;2023-02-23T14:34:18;47.95;;;28.33;;
63818;SDS011;49970;54.976;73.248;2023-02-23T14:46:26;54.72;;;28.17;;
63818;SDS011;49970;54.976;73.248;2023-02-23T14:50:23;51.97;;;30.23;;
63818;SDS011;49970;54.976;73.248;2023-02-23T14:54:11;47.97;;;29.50;;
63818;SDS011;49970;54.976;73.248;2023-02-23T14:58:02;48.28;;;28.00;;
63818;SDS011;49970;54.976;73.248;2023-02-23T15:02:06;45.53;;;27.45;;
63818;SDS011;49970;54.976;73.248;2023-02-23T15:04:44;46.25;;;27.60;;
63818;SDS011;49970;54.976;73.248;2023-02-23T15:07:53;43.05;;;25.40;;
63818;SDS011;49970;54.976;73.248;2023-02-23T15:10:27;41.28;;;24.70;;
63818;SDS011;49970;54.976;73.248;2023-02-23T15:13:47;52.60;;;28.05;;
63818;SDS011;49970;54.976;73.248;2023-02-23T15:16:08;44.40;;;26.27;;
63818;SDS011;49970;54.976;73.248;2023-02-23T15:18:40;38.53;;;24.80;;
63818;SDS011;49970;54.976;73.248;2023-02-23T15:21:14;37.55;;;26.25;;
63818;SDS011;49970;54.976;73.248;2023-02-23T15:23:50;41.45;;;27.58;;
63818;SDS011;49970;54.976;73.248;2023-02-23T15:26:31;38.10;;;25.55;;
63818;SDS011;49970;54.976;73.248;2023-02-23T15:29:15;43.38;;;25.30;;
63818;SDS011;49970;54.976;73.248;2023-02-23T15:34:26;40.45;;;26.13;;
63818;SDS011;49970;54.976;73.248;2023-02-23T15:37:00;47.22;;;27.98;;
63818;SDS011;49970;54.976;73.248;2023-02-23T15:42:16;45.22;;;26.42;;
63818;SDS011;49970;54.976;73.248;2023-02-23T15:47:23;42.65;;;26.30;;
63818;SDS011;49970;54.976;73.248;2023-02-23T15:50:04;41.80;;;26.40;;
63818;SDS011;49970;54.976;73.248;2023-02-23T15:52:50;45.45;;;29.27;;
63818;SDS011;49970;54.976;73.248;2023-02-23T15:55:23;46.33;;;28.83;;
63818;SDS011;49970;54.976;73.248;2023-02-23T15:57:58;42.45;;;27.35;;
63818;SDS011;49970;54.976;73.248;2023-02-23T16:00:32;44.97;;;28.40;;
63818;SDS011;49970;54.976;73.248;2023-02-23T16:03:03;43.55;;;28.52;;
63818;SDS011;49970;54.976;73.248;2023-02-23T16:05:38;47.08;;;29.80;;
63818;SDS011;49970;54.976;73.248;2023-02-23T16:08:28;44.20;;;27.23;;
63818;SDS011;49970;54.976;73.248;2023-02-23T16:11:03;45.78;;;28.65;;
63818;SDS011;49970;54.976;73.248;2023-02-23T16:13:36;51.33;;;27.98;;
63818;SDS011;49970;54.976;73.248;2023-02-23T16:16:08;42.70;;;27.80;;
63818;SDS011;49970;54.976;73.248;2023-02-23T16:18:43;46.45;;;26.02;;
63818;SDS011;49970;54.976;73.248;2023-02-23T16:21:18;34.33;;;24.52;;
63818;SDS011;49970;54.976;73.248;2023-02-23T16:23:51;37.65;;;25.23;;
63818;SDS011;49970;54.976;73.248;2023-02-23T16:26:22;39.50;;;23.52;;
63818;SDS011;49970;54.976;73.248;2023-02-23T16:28:57;35.50;;;21.60;;
63818;SDS011;49970;54.976;73.248;2023-02-23T16:32:00;35.92;;;21.73;;
63818;SDS011;49970;54.976;73.248;2023-02-23T16:34:26;44.33;;;21.98;;
63818;SDS011;49970;54.976;73.248;2023-02-23T16:36:57;30.85;;;21.33;;
63818;SDS011;49970;54.976;73.248;2023-02-23T16:39:37;34.63;;;22.75;;
63818;SDS011;49970;54.976;73.248;2023-02-23T16:42:22;32.97;;;19.95;;
63818;SDS011;49970;54.976;73.248;2023-02-23T16:45:03;31.63;;;22.95;;
63818;SDS011;49970;54.976;73.248;2023-02-23T16:47:40;32.78;;;22.45;;
63818;SDS011;49970;54.976;73.248;2023-02-23T16:50:21;31.75;;;22.25;;
63818;SDS011;49970;54.976;73.248;2023-02-23T16:52:50;34.93;;;21.50;;
63818;SDS011;49970;54.976;73.248;2023-02-23T16:55:21;31.25;;;21.20;;
63818;SDS011;49970;54.976;73.248;2023-02-23T16:57:54;30.50;;;21.13;;
63818;SDS011;49970;54.976;73.248;2023-02-23T17:00:29;32.20;;;21.77;;
63818;SDS011;49970;54.976;73.248;2023-02-23T17:02:57;30.13;;;21.80;;
63818;SDS011;49970;54.976;73.248;2023-02-23T17:05:26;30.27;;;19.65;;
63818;SDS011;49970;54.976;73.248;2023-02-23T17:07:58;27.48;;;19.77;;
63818;SDS011;49970;54.976;73.248;2023-02-23T17:10:26;24.95;;;18.52;;
63818;SDS011;49970;54.976;73.248;2023-02-23T17:13:00;24.02;;;18.02;;
63818;SDS011;49970;54.976;73.248;2023-02-23T17:18:00;18.08;;;14.35;;
63818;SDS011;49970;54.976;73.248;2023-02-23T17:20:31;23.65;;;14.95;;
63818;SDS011;49970;54.976;73.248;2023-02-23T17:23:08;18.27;;;13.88;;
63818;SDS011;49970;54.976;73.248;2023-02-23T17:25:40;15.88;;;12.07;;
63818;SDS011;49970;54.976;73.248;2023-02-23T17:28:12;14.75;;;12.07;;
63818;SDS011;49970;54.976;73.248;2023-02-23T17:30:48;13.65;;;11.60;;